createdAt,value
2018-09-14T00:00:13.946Z,99505.52
2018-09-14T00:02:42.904Z,99510.36
2018-09-14T00:05:11.909Z,99504.40
2018-09-14T00:07:41.127Z,99503.03
2018-09-14T00:10:14.282Z,99495.31
2018-09-14T00:12:43.380Z,99495.12
2018-09-14T00:15:12.425Z,99493.59
2018-09-14T00:17:41.457Z,99488.80
2018-09-14T00:20:13.220Z,99490.65
2018-09-14T00:25:35.314Z,99498.54
2018-09-14T00:28:04.220Z,99498.32
2018-09-14T00:30:36.475Z,99493.48
2018-09-14T00:33:05.614Z,99497.12
2018-09-14T00:35:34.566Z,99495.04
2018-09-14T00:38:04.600Z,99493.95
2018-09-14T00:40:33.683Z,99485.52
2018-09-14T00:43:04.806Z,99486.20
2018-09-14T00:45:40.810Z,99482.19
2018-09-14T00:48:10.747Z,99485.00
2018-09-14T00:50:39.718Z,99490.13
2018-09-14T00:53:14.564Z,99493.55
2018-09-14T00:58:35.217Z,99484.58
2018-09-14T01:01:04.234Z,99483.92
2018-09-14T01:03:52.378Z,99480.78
2018-09-14T01:06:22.381Z,99481.56
2018-09-14T01:08:52.027Z,99489.77
2018-09-14T01:11:21.398Z,99485.05
2018-09-14T01:13:53.828Z,99488.37
2018-09-14T01:16:32.859Z,99479.68
2018-09-14T01:19:07.681Z,99476.57
2018-09-14T01:21:40.443Z,99478.89
2018-09-14T01:24:10.108Z,99473.46
2018-09-14T01:26:46.098Z,99478.22
2018-09-14T01:29:18.965Z,99475.78
2018-09-14T01:31:48.180Z,99473.24
2018-09-14T01:34:25.521Z,99469.73
2018-09-14T01:36:58.310Z,99472.92
2018-09-14T01:39:27.408Z,99477.15
2018-09-14T01:41:57.223Z,99477.77
2018-09-14T01:44:26.228Z,99474.38
2018-09-14T01:46:55.285Z,99476.11
2018-09-14T01:49:28.989Z,99477.44
2018-09-14T01:52:11.227Z,99467.70
2018-09-14T01:54:43.885Z,99470.02
2018-09-14T01:57:19.372Z,99468.20
2018-09-14T01:59:48.276Z,99469.17
2018-09-14T02:02:17.370Z,99467.84
2018-09-14T02:04:47.347Z,99466.27
2018-09-14T02:07:17.282Z,99456.21
2018-09-14T02:09:48.471Z,99455.23
2018-09-14T02:12:17.538Z,99452.44
2018-09-14T02:14:47.640Z,99453.05
2018-09-14T02:17:23.098Z,99458.03
2018-09-14T02:19:52.093Z,99459.73
2018-09-14T02:22:21.066Z,99461.06
2018-09-14T02:24:50.143Z,99458.03
2018-09-14T02:27:23.738Z,99458.16
2018-09-14T02:29:58.056Z,99454.39
2018-09-14T02:32:33.490Z,99452.72
2018-09-14T02:35:02.900Z,99458.55
2018-09-14T02:37:31.875Z,99466.31
2018-09-14T02:40:06.992Z,99464.39
2018-09-14T02:42:39.689Z,99465.94
2018-09-14T02:45:08.846Z,99464.97
2018-09-14T02:47:37.842Z,99466.20
2018-09-14T02:50:07.340Z,99471.41
2018-09-14T02:52:36.659Z,99452.48
2018-09-14T02:55:05.826Z,99452.72
2018-09-14T02:57:34.730Z,99453.70
2018-09-14T03:00:10.064Z,99446.89
2018-09-14T03:02:39.228Z,99443.97
2018-09-14T03:05:08.231Z,99439.48
2018-09-14T03:07:39.046Z,99449.89
2018-09-14T03:10:12.161Z,99443.61
2018-09-14T03:12:41.605Z,99450.28
2018-09-14T03:15:11.570Z,99449.17
2018-09-14T03:17:41.525Z,99451.23
2018-09-14T03:20:10.976Z,99450.88
2018-09-14T03:22:39.851Z,99459.63
2018-09-14T03:25:09.917Z,99458.66
2018-09-14T03:27:39.198Z,99461.91
2018-09-14T03:30:08.089Z,99455.84
2018-09-14T03:32:36.988Z,99460.34
2018-09-14T03:35:06.721Z,99457.06
2018-09-14T03:37:42.108Z,99456.80
2018-09-14T03:40:11.477Z,99449.67
2018-09-14T03:42:40.684Z,99463.60
2018-09-14T03:45:09.731Z,99456.34
2018-09-14T03:47:39.016Z,99459.98
2018-09-14T03:50:08.120Z,99463.37
2018-09-14T03:52:37.153Z,99456.95
2018-09-14T03:55:07.632Z,99456.72
2018-09-14T03:57:36.555Z,99465.20
2018-09-14T04:00:05.459Z,99462.90
2018-09-14T04:02:35.018Z,99467.16
2018-09-14T04:05:04.142Z,99470.80
2018-09-14T04:07:33.119Z,99474.21
2018-09-14T04:10:02.612Z,99474.93
2018-09-14T04:12:31.481Z,99480.50
2018-09-14T04:15:00.357Z,99488.52
2018-09-14T04:17:29.342Z,99489.72
2018-09-14T04:19:58.334Z,99498.19
2018-09-14T04:22:27.301Z,99502.42
2018-09-14T04:24:56.183Z,99505.72
2018-09-14T04:27:25.290Z,99511.05
2018-09-14T04:29:54.209Z,99513.23
2018-09-14T04:32:23.115Z,99504.25
2018-09-14T04:34:52.111Z,99504.87
2018-09-14T04:37:21.267Z,99512.37
2018-09-14T04:39:50.427Z,99505.56
2018-09-14T04:42:19.462Z,99500.72
2018-09-14T04:44:48.412Z,99502.03
2018-09-14T04:47:17.341Z,99509.06
2018-09-14T04:49:46.175Z,99511.73
2018-09-14T04:52:15.257Z,99505.87
2018-09-14T04:54:44.619Z,99515.58
2018-09-14T04:57:13.621Z,99508.63
2018-09-14T04:59:42.681Z,99510.41
2018-09-14T05:02:12.003Z,99508.28
2018-09-14T05:04:40.960Z,99509.73
2018-09-14T05:07:17.307Z,99515.66
2018-09-14T05:10:09.272Z,99507.00
2018-09-14T05:12:38.314Z,99507.23
2018-09-14T05:15:07.364Z,99508.61
2018-09-14T05:17:36.223Z,99498.16
2018-09-14T05:20:05.123Z,99497.98
2018-09-14T05:22:34.302Z,99499.13
2018-09-14T05:25:03.383Z,99493.48
2018-09-14T05:27:32.316Z,99489.17
2018-09-14T05:30:01.347Z,99493.66
2018-09-14T05:32:30.544Z,99492.31
2018-09-14T05:35:00.856Z,99493.88
2018-09-14T05:37:30.818Z,99495.27
2018-09-14T05:40:03.162Z,99492.06
2018-09-14T05:42:48.613Z,99478.62
2018-09-14T05:45:23.309Z,99478.80
2018-09-14T05:48:04.377Z,99473.48
2018-09-14T05:50:42.015Z,99478.03
2018-09-14T05:53:10.999Z,99476.58
2018-09-14T05:55:41.880Z,99480.48
2018-09-14T05:58:11.856Z,99482.23
2018-09-14T06:00:40.906Z,99478.09
2018-09-14T06:03:10.214Z,99478.85
2018-09-14T06:05:40.161Z,99468.23
2018-09-14T06:08:09.157Z,99475.19
2018-09-14T06:10:38.754Z,99475.63
2018-09-14T06:13:09.658Z,99482.14
2018-09-14T06:15:38.570Z,99483.94
2018-09-14T06:18:08.009Z,99480.91
2018-09-14T06:20:36.926Z,99484.44
2018-09-14T06:23:05.997Z,99485.73
2018-09-14T06:25:35.182Z,99487.03
2018-09-14T06:28:04.174Z,99487.66
2018-09-14T06:30:34.504Z,99487.98
2018-09-14T06:33:03.420Z,99494.48
2018-09-14T06:35:32.337Z,99493.77
2018-09-14T06:38:01.388Z,99497.95
2018-09-14T06:40:30.273Z,99497.61
2018-09-14T06:43:01.898Z,99497.67
2018-09-14T06:45:30.817Z,99508.75
2018-09-14T06:47:59.948Z,99503.51
2018-09-14T06:50:29.598Z,99500.92
2018-09-14T06:52:59.316Z,99502.20
2018-09-14T06:55:28.278Z,99501.84
2018-09-14T06:57:57.575Z,99504.89
2018-09-14T07:00:26.750Z,99503.31
2018-09-14T07:02:58.012Z,99505.27
2018-09-14T07:05:26.864Z,99500.81
2018-09-14T07:07:55.892Z,99499.38
2018-09-14T07:10:25.156Z,99499.63
2018-09-14T07:12:53.979Z,99506.17
2018-09-14T07:15:23.116Z,99510.94
2018-09-14T07:17:52.399Z,99504.05
2018-09-14T07:20:21.264Z,99506.13
2018-09-14T07:22:50.080Z,99504.48
2018-09-14T07:25:19.464Z,99495.10
2018-09-14T07:27:49.305Z,99505.93
2018-09-14T07:30:18.226Z,99496.59
2018-09-14T07:32:48.577Z,99502.19
2018-09-14T07:35:17.517Z,99496.63
2018-09-14T07:37:46.391Z,99493.44
2018-09-14T07:40:15.845Z,99500.19
2018-09-14T07:42:44.923Z,99495.16
2018-09-14T07:45:13.732Z,99493.80
2018-09-14T07:47:42.754Z,99498.20
2018-09-14T07:50:11.489Z,99493.52
2018-09-14T07:52:40.657Z,99491.48
2018-09-14T07:55:09.629Z,99493.34
2018-09-14T07:57:39.554Z,99490.30
2018-09-14T08:00:08.454Z,99492.13
2018-09-14T08:02:37.896Z,99491.64
2018-09-14T08:05:07.027Z,99494.31
2018-09-14T08:07:35.876Z,99495.66
2018-09-14T08:10:05.170Z,99492.93
2018-09-14T08:12:34.109Z,99490.23
2018-09-14T08:15:03.208Z,99485.47
2018-09-14T08:17:32.298Z,99484.09
2018-09-14T08:20:01.545Z,99482.89
2018-09-14T08:22:30.483Z,99479.28
2018-09-14T08:24:59.948Z,99482.44
2018-09-14T08:27:28.877Z,99480.68
2018-09-14T08:29:57.934Z,99476.44
2018-09-14T08:32:27.265Z,99477.97
2018-09-14T08:34:56.227Z,99473.36
2018-09-14T08:37:25.222Z,99479.83
2018-09-14T08:39:54.347Z,99470.84
2018-09-14T08:42:23.502Z,99477.19
2018-09-14T08:44:52.644Z,99475.84
2018-09-14T08:47:21.580Z,99476.58
2018-09-14T08:49:52.544Z,99480.64
2018-09-14T08:52:22.824Z,99479.56
2018-09-14T08:54:51.750Z,99484.74
2018-09-14T08:57:20.661Z,99476.11
2018-09-14T08:59:50.019Z,99486.22
2018-09-14T09:02:19.098Z,99479.66
2018-09-14T09:04:48.194Z,99480.92
2018-09-14T09:07:18.764Z,99484.63
2018-09-14T09:09:47.646Z,99483.13
2018-09-14T09:12:16.755Z,99483.22
2018-09-14T09:14:45.717Z,99483.90
2018-09-14T09:17:14.673Z,99484.11
2018-09-14T09:19:43.651Z,99479.64
2018-09-14T09:22:12.884Z,99486.23
2018-09-14T09:24:41.990Z,99483.05
2018-09-14T09:27:10.913Z,99488.99
2018-09-14T09:29:39.996Z,99486.42
2018-09-14T09:32:10.041Z,99489.13
2018-09-14T09:34:39.138Z,99481.15
2018-09-14T09:37:08.211Z,99485.91
2018-09-14T09:39:37.235Z,99475.25
2018-09-14T09:42:08.790Z,99476.30
2018-09-14T09:44:37.705Z,99467.28
2018-09-14T09:47:06.597Z,99465.89
2018-09-14T09:49:36.907Z,99467.27
2018-09-14T09:52:06.201Z,99466.20
2018-09-14T09:54:35.137Z,99458.56
2018-09-14T09:57:04.149Z,99458.43
2018-09-14T09:59:32.942Z,99454.30
2018-09-14T10:02:07.389Z,99453.62
2018-09-14T10:04:41.421Z,99449.74
2018-09-14T10:07:11.779Z,99451.64
2018-09-14T10:09:40.726Z,99449.63
2018-09-14T10:12:09.839Z,99446.34
2018-09-14T10:14:38.987Z,99441.44
2018-09-14T10:17:07.957Z,99434.27
2018-09-14T10:19:37.111Z,99433.17
2018-09-14T10:22:06.545Z,99430.34
2018-09-14T10:24:35.350Z,99431.77
2018-09-14T10:27:04.393Z,99422.39
2018-09-14T10:29:33.821Z,99421.41
2018-09-14T10:32:02.848Z,99421.04
2018-09-14T10:34:31.696Z,99416.77
2018-09-14T10:37:01.180Z,99412.50
2018-09-14T10:39:30.525Z,99409.59
2018-09-14T10:41:59.463Z,99411.02
2018-09-14T10:44:28.543Z,99404.34
2018-09-14T10:46:57.513Z,99408.85
2018-09-14T10:49:26.584Z,99403.02
2018-09-14T10:51:55.537Z,99392.16
2018-09-14T10:54:24.650Z,99390.41
2018-09-14T10:56:53.552Z,99393.97
2018-09-14T10:59:22.540Z,99395.52
2018-09-14T11:01:51.350Z,99395.94
2018-09-14T11:04:20.311Z,99392.24
2018-09-14T11:06:49.770Z,99388.25
2018-09-14T11:09:18.745Z,99390.09
2018-09-14T11:11:47.848Z,99379.56
2018-09-14T11:14:17.477Z,99381.66
2018-09-14T11:16:46.361Z,99378.03
2018-09-14T11:19:15.208Z,99379.08
2018-09-14T11:21:44.467Z,99373.80
2018-09-14T11:24:13.405Z,99375.72
2018-09-14T11:26:42.519Z,99372.30
2018-09-14T11:29:11.811Z,99371.95
2018-09-14T11:31:40.680Z,99379.61
2018-09-14T11:34:09.574Z,99380.34
2018-09-14T11:36:38.522Z,99378.56
2018-09-14T11:39:09.802Z,99370.41
2018-09-14T11:41:39.015Z,99370.84
2018-09-14T11:44:07.921Z,99375.98
2018-09-14T11:46:36.965Z,99365.70
2018-09-14T11:49:05.765Z,99367.62
2018-09-14T11:51:34.633Z,99366.78
2018-09-14T11:54:03.798Z,99364.98
2018-09-14T11:56:32.966Z,99362.02
2018-09-14T11:59:02.010Z,99368.80
2018-09-14T12:01:31.004Z,99364.00
2018-09-14T12:04:00.100Z,99366.55
2018-09-14T12:06:29.031Z,99363.30
2018-09-14T12:08:57.923Z,99370.52
2018-09-14T12:11:27.228Z,99363.39
2018-09-14T12:13:56.139Z,99363.73
2018-09-14T12:16:25.103Z,99363.95
2018-09-14T12:18:54.106Z,99361.11
2018-09-14T12:21:22.849Z,99360.41
2018-09-14T12:23:51.933Z,99355.16
2018-09-14T12:26:21.383Z,99358.62
2018-09-14T12:28:50.144Z,99357.97
2018-09-14T12:31:19.226Z,99355.43
2018-09-14T12:33:48.367Z,99350.91
2018-09-14T12:36:17.601Z,99352.91
2018-09-14T12:38:46.614Z,99342.55
2018-09-14T12:41:15.923Z,99344.39
2018-09-14T12:43:44.847Z,99342.78
2018-09-14T12:46:13.817Z,99338.01
2018-09-14T12:48:43.205Z,99340.35
2018-09-14T12:51:12.006Z,99332.85
2018-09-14T12:53:40.903Z,99330.56
2018-09-14T12:56:10.289Z,99333.52
2018-09-14T12:58:39.265Z,99331.09
2018-09-14T13:01:08.212Z,99333.39
2018-09-14T13:03:37.264Z,99330.73
2018-09-14T13:06:06.348Z,99326.70
2018-09-14T13:08:35.288Z,99334.06
2018-09-14T13:11:04.650Z,99334.98
2018-09-14T13:16:12.247Z,99337.62
2018-09-14T13:18:41.536Z,99325.35
2018-09-14T13:21:10.495Z,99330.94
2018-09-14T13:23:41.657Z,99331.64
2018-09-14T13:26:10.980Z,99324.38
2018-09-14T13:28:40.921Z,99322.02
2018-09-14T13:31:10.655Z,99331.82
2018-09-14T13:33:39.451Z,99334.41
2018-09-14T13:36:08.486Z,99324.22
2018-09-14T13:38:37.742Z,99329.75
2018-09-14T13:41:06.988Z,99328.30
2018-09-14T13:43:38.355Z,99324.77
2018-09-14T13:46:10.477Z,99324.67
2018-09-14T13:48:40.470Z,99325.20
2018-09-14T13:51:09.407Z,99323.83
2018-09-14T13:53:38.264Z,99321.41
2018-09-14T13:56:07.538Z,99315.45
2018-09-14T13:58:36.502Z,99316.48
2018-09-14T14:01:05.452Z,99325.17
2018-09-14T14:03:34.800Z,99320.59
2018-09-14T14:06:03.901Z,99321.53
2018-09-14T14:08:32.746Z,99333.45
2018-09-14T14:11:01.589Z,99325.38
2018-09-14T14:13:30.461Z,99319.53
2018-09-14T14:15:59.286Z,99327.58
2018-09-14T14:18:28.292Z,99317.12
2018-09-14T14:20:57.333Z,99317.53
2018-09-14T14:23:26.233Z,99318.61
2018-09-14T14:25:55.424Z,99317.84
2018-09-14T14:28:24.277Z,99316.08
2018-09-14T14:30:53.406Z,99318.15
2018-09-14T14:33:22.706Z,99320.89
2018-09-14T14:35:51.662Z,99331.75
2018-09-14T14:38:20.577Z,99324.01
2018-09-14T14:40:49.997Z,99319.27
2018-09-14T14:43:18.881Z,99328.68
2018-09-14T14:45:47.964Z,99328.36
2018-09-14T14:48:16.888Z,99323.52
2018-09-14T14:50:45.729Z,99327.48
2018-09-14T14:53:14.637Z,99331.40
2018-09-14T14:55:43.916Z,99333.24
2018-09-14T14:58:12.728Z,99332.09
2018-09-14T15:00:41.583Z,99330.31
2018-09-14T15:03:10.453Z,99327.24
2018-09-14T15:05:40.427Z,99333.80
2018-09-14T15:08:09.544Z,99333.03
2018-09-14T15:10:38.743Z,99336.59
2018-09-14T15:13:07.524Z,99333.80
2018-09-14T15:15:36.455Z,99336.28
2018-09-14T15:18:05.945Z,99326.16
2018-09-14T15:20:34.817Z,99331.88
2018-09-14T15:23:03.591Z,99334.71
2018-09-14T15:25:32.614Z,99332.37
2018-09-14T15:28:01.446Z,99328.67
2018-09-14T15:30:30.437Z,99336.34
2018-09-14T15:32:59.487Z,99344.94
2018-09-14T15:35:28.505Z,99337.83
2018-09-14T15:37:57.501Z,99344.16
2018-09-14T15:40:26.447Z,99343.41
2018-09-14T15:42:55.345Z,99347.95
2018-09-14T15:45:24.336Z,99352.58
2018-09-14T15:47:53.782Z,99346.94
2018-09-14T15:50:22.772Z,99348.88
2018-09-14T15:52:51.679Z,99352.09
2018-09-14T15:55:21.119Z,99357.72
2018-09-14T15:57:50.275Z,99356.23
2018-09-14T16:00:21.963Z,99359.59
2018-09-14T16:02:52.469Z,99366.75
2018-09-14T16:05:21.492Z,99365.77
2018-09-14T16:07:50.767Z,99367.22
2018-09-14T16:10:19.984Z,99376.86
2018-09-14T16:12:49.152Z,99367.36
2018-09-14T16:15:18.108Z,99373.91
2018-09-14T16:17:46.849Z,99366.17
2018-09-14T16:20:15.805Z,99378.16
2018-09-14T16:22:44.953Z,99384.45
2018-09-14T16:25:13.846Z,99375.09
2018-09-14T16:27:42.760Z,99381.89
2018-09-14T16:30:11.533Z,99379.28
2018-09-14T16:32:40.338Z,99381.42
2018-09-14T16:35:09.485Z,99382.05
2018-09-14T16:37:38.329Z,99387.36
2018-09-14T16:40:07.416Z,99389.94
2018-09-14T16:42:36.504Z,99376.09
2018-09-14T16:45:05.850Z,99391.88
2018-09-14T16:47:34.689Z,99401.53
2018-09-14T16:50:04.012Z,99400.77
2018-09-14T16:52:32.965Z,99405.97
2018-09-14T16:55:01.796Z,99408.09
2018-09-14T16:57:31.087Z,99405.54
2018-09-14T17:00:00.062Z,99409.50
2018-09-14T17:03:32.176Z,99406.67
2018-09-14T17:06:01.365Z,99416.26
2018-09-14T17:08:30.241Z,99410.89
2018-09-14T17:10:59.357Z,99410.80
2018-09-14T17:13:28.261Z,99414.41
2018-09-14T17:15:57.167Z,99421.84
2018-09-14T17:18:26.077Z,99429.97
2018-09-14T17:20:54.905Z,99433.89
2018-09-14T17:23:23.757Z,99436.43
2018-09-14T17:25:52.561Z,99444.22
2018-09-14T17:28:21.397Z,99445.41
2018-09-14T17:30:50.240Z,99450.97
2018-09-14T17:33:19.141Z,99446.27
2018-09-14T17:35:47.872Z,99450.31
2018-09-14T17:38:16.660Z,99448.97
2018-09-14T17:40:45.865Z,99464.02
2018-09-14T17:43:14.721Z,99456.41
2018-09-14T17:45:43.509Z,99464.81
2018-09-14T17:48:12.301Z,99464.80
2018-09-14T17:50:41.124Z,99464.14
2018-09-14T17:53:09.867Z,99468.52
2018-09-14T17:55:39.018Z,99477.94
2018-09-14T17:58:07.719Z,99481.66
2018-09-14T18:00:36.601Z,99482.82
2018-09-14T18:03:05.900Z,99487.88
2018-09-14T18:05:34.707Z,99492.44
2018-09-14T18:08:03.437Z,99491.27
2018-09-14T18:10:32.406Z,99489.75
2018-09-14T18:13:01.256Z,99492.59
2018-09-14T18:15:30.063Z,99496.65
2018-09-14T18:17:59.046Z,99493.59
2018-09-14T18:20:27.936Z,99492.41
2018-09-14T18:22:56.739Z,99491.70
2018-09-14T18:25:25.858Z,99492.22
2018-09-14T18:27:54.863Z,99493.56
2018-09-14T18:30:23.622Z,99496.26
2018-09-14T18:32:53.001Z,99492.99
2018-09-14T18:35:21.923Z,99492.80
2018-09-14T18:37:50.663Z,99497.30
2018-09-14T18:40:19.827Z,99490.72
2018-09-14T18:42:48.683Z,99491.35
2018-09-14T18:45:17.566Z,99494.52
2018-09-14T18:47:46.424Z,99498.00
2018-09-14T18:50:15.246Z,99496.30
2018-09-14T18:52:44.169Z,99500.47
2018-09-14T18:55:13.061Z,99504.84
2018-09-14T18:57:41.948Z,99499.48
2018-09-14T19:00:10.745Z,99507.58
2018-09-14T19:02:40.006Z,99508.81
2018-09-14T19:05:08.786Z,99511.18
2018-09-14T19:07:37.619Z,99511.67
2018-09-14T19:10:07.266Z,99512.13
2018-09-14T19:12:36.152Z,99520.15
2018-09-14T19:15:05.013Z,99515.20
2018-09-14T19:17:34.075Z,99523.17
2018-09-14T19:20:02.868Z,99525.78
2018-09-14T19:22:31.824Z,99527.56
2018-09-14T19:25:01.635Z,99531.89
2018-09-14T19:27:30.444Z,99533.85
2018-09-14T19:29:59.305Z,99525.20
2018-09-14T19:32:28.246Z,99535.25
2018-09-14T19:34:57.114Z,99533.66
2018-09-14T19:37:26.037Z,99536.83
2018-09-14T19:39:54.876Z,99535.27
2018-09-14T19:42:23.864Z,99540.45
2018-09-14T19:44:52.627Z,99543.65
2018-09-14T19:47:21.699Z,99545.30
2018-09-14T19:49:50.661Z,99541.66
2018-09-14T19:52:19.518Z,99546.22
2018-09-14T19:54:48.877Z,99543.69
2018-09-14T19:57:17.710Z,99547.64
2018-09-14T19:59:46.435Z,99545.77
2018-09-14T20:02:15.559Z,99551.74
2018-09-14T20:04:44.356Z,99547.43
2018-09-14T20:07:13.183Z,99553.47
2018-09-14T20:09:42.508Z,99559.22
2018-09-14T20:12:11.472Z,99564.34
2018-09-14T20:14:40.363Z,99562.16
2018-09-14T20:17:09.304Z,99560.16
2018-09-14T20:19:38.089Z,99555.34
2018-09-14T20:22:07.542Z,99561.69
2018-09-14T20:24:36.767Z,99562.08
2018-09-14T20:27:05.655Z,99562.48
2018-09-14T20:29:34.520Z,99564.13
2018-09-14T20:32:03.843Z,99562.64
2018-09-14T20:34:32.628Z,99563.83
2018-09-14T20:37:01.558Z,99566.52
2018-09-14T20:39:30.925Z,99563.44
2018-09-14T20:41:59.771Z,99563.59
2018-09-14T20:44:29.170Z,99562.88
2018-09-14T20:46:58.610Z,99562.98
2018-09-14T20:49:27.435Z,99566.02
2018-09-14T20:51:56.219Z,99564.02
2018-09-14T20:54:25.104Z,99557.55
2018-09-14T20:56:54.045Z,99568.55
2018-09-14T20:59:22.967Z,99564.06
2018-09-14T21:01:52.144Z,99564.98
2018-09-14T21:04:20.898Z,99567.94
2018-09-14T21:06:49.609Z,99566.59
2018-09-14T21:09:18.743Z,99569.63
2018-09-14T21:11:47.508Z,99570.93
2018-09-14T21:14:16.360Z,99567.90
2018-09-14T21:16:45.228Z,99571.80
2018-09-14T21:19:14.081Z,99572.60
2018-09-14T21:21:42.850Z,99568.98
2018-09-14T21:24:12.113Z,99564.92
2018-09-14T21:26:40.960Z,99575.38
2018-09-14T21:29:09.711Z,99569.26
2018-09-14T21:31:39.096Z,99576.03
2018-09-14T21:34:07.965Z,99579.31
2018-09-14T21:36:36.877Z,99570.83
2018-09-14T21:39:09.340Z,99577.39
2018-09-14T21:41:38.098Z,99576.14
2018-09-14T21:44:07.102Z,99577.89
2018-09-14T21:46:36.213Z,99574.86
2018-09-14T21:49:05.065Z,99574.52
2018-09-14T21:51:33.859Z,99573.47
2018-09-14T21:54:03.135Z,99581.80
2018-09-14T21:56:31.970Z,99583.87
2018-09-14T21:59:00.866Z,99581.41
2018-09-14T22:01:30.659Z,99589.52
2018-09-14T22:04:00.725Z,99582.16
2018-09-14T22:06:29.711Z,99582.59
2018-09-14T22:08:58.579Z,99592.02
2018-09-14T22:11:27.455Z,99594.29
2018-09-14T22:13:56.309Z,99588.86
2018-09-14T22:16:25.557Z,99582.20
2018-09-14T22:18:54.416Z,99590.80
2018-09-14T22:21:23.195Z,99595.25
2018-09-14T22:23:52.212Z,99596.92
2018-09-14T22:26:21.086Z,99598.33
2018-09-14T22:28:49.833Z,99592.23
2018-09-14T22:31:19.131Z,99602.17
2018-09-14T22:33:47.845Z,99607.08
2018-09-14T22:36:16.706Z,99604.47
2018-09-14T22:38:45.935Z,99607.45
2018-09-14T22:41:14.873Z,99602.02
2018-09-14T22:43:43.736Z,99607.69
2018-09-14T22:46:12.537Z,99612.55
2018-09-14T22:48:41.354Z,99611.63
2018-09-14T22:51:10.113Z,99622.69
2018-09-14T22:53:39.354Z,99618.75
2018-09-14T22:56:08.210Z,99628.06
2018-09-14T22:58:36.968Z,99631.38
2018-09-14T23:01:10.975Z,99629.25
2018-09-14T23:03:39.847Z,99634.80
2018-09-14T23:06:08.624Z,99633.27
2018-09-14T23:08:37.874Z,99627.15
2018-09-14T23:11:06.969Z,99623.11
2018-09-14T23:13:35.851Z,99617.86
2018-09-14T23:16:04.975Z,99622.64
2018-09-14T23:18:33.845Z,99626.81
2018-09-14T23:21:02.681Z,99627.70
2018-09-14T23:23:31.836Z,99635.52
2018-09-14T23:26:07.153Z,99633.97
2018-09-14T23:28:36.387Z,99632.05
2018-09-14T23:31:05.242Z,99633.38
2018-09-14T23:33:34.128Z,99630.81
2018-09-14T23:36:03.428Z,99629.52
2018-09-14T23:38:32.336Z,99627.56
2018-09-14T23:41:01.215Z,99620.98
2018-09-14T23:43:30.298Z,99620.27
2018-09-14T23:45:59.132Z,99619.81
2018-09-14T23:48:27.983Z,99606.45
2018-09-14T23:50:57.206Z,99607.79
2018-09-14T23:53:26.088Z,99605.38
2018-09-14T23:55:54.840Z,99604.67
2018-09-14T23:58:23.986Z,99607.52
